Ergebnisliste vom: 05.03.2016 - Radebeuler Wintercross2016 - 5,8 km

weitere Ergebnisse >>

Platz Pl.m Pl.w Stnr. Name,Vorname Verein GJ AK Akm Akw Endzeit RŘckst.
1 1   423 Koritz, Tim Dresdner Sportclub 1898 99 mU18 1   0:21:15 0:00:00
2 2   122 H├Âck, Kilian SV Robotron Dresden/Orientierungsl.   mU18 2   0:23:32 0:02:17
3 3   218 Liebau, Julian SSV Planeta Radebeul   mU18 3   0:23:35 0:02:20
4   1 13 Stich, Grit Radebeul 70 W45   1 0:23:39 0:02:24
5 4   443 F├Ârster, Lukas SG Gr├╝ne Eiche Gro├čthiemig 99 mU18 4   0:23:42 0:02:27
6 5   217 Urban, Moritz SSV Planeta Radebeul 99 mU18 5   0:24:03 0:02:48
7 6   432 Polak, Juraj Ockrilla 98 mU20 1   0:24:20 0:03:05
8 7   368 Kaubisch, Nico Team Erdinger Alkoholfrei Hirschfeld 97 mU20 2   0:24:29 0:03:14
9 8   53 Jancker, Hans-Dieter SV Elbland Coswig-Mei├čen 52 M60 1   0:24:40 0:03:25
10 9   26 B├Âhme, Benjamin Dresden   mU18 6   0:24:49 0:03:34
11 10   100 Franke, Christian TV Dresden   mU18 7   0:24:57 0:03:42
12   2 30 Marx, Christin TSV Dresden 64 W50+   1 0:26:10 0:04:55
13 11   177 Metzner, Jonas SG Lok Hainsberg 99 mU18 8   0:26:16 0:05:01
14   3 429 Ubbelohde, Ulrike SC Poseidon Radebeul 71 W45   2 0:26:37 0:05:22
15 12   14 Stich, Nicolas SV Elbland Coswig-Mei├čen 99 mU18 9   0:26:39 0:05:24
16   4 51 Drechsler, Anja Dresdner SV 1953 69 W45   3 0:26:40 0:05:25
17   5 360 M├╝nch, Kristin SV Elbland Coswig Mei├čen 84 W30   1 0:26:44 0:05:29
17 13   440 Berger, Victor TuS Coswig 53 M60 2   0:26:44 0:05:29
19 14   25 Heyer, Ulrich Chemnitz 53 M60 3   0:26:49 0:05:34
20 15   102 Quast, Jeremy TV Dresden   mU18 10   0:26:58 0:05:43
21 16   428 Almahmout, Bashar   95 mVS 1   0:27:06 0:05:51
22   6 438 Hornung, Kathleen TV Dresden 68 W45   4 0:27:09 0:05:54
23   7 131 Dewitz, Silke ESV Lok D├Âbeln 67 W45   5 0:27:15 0:06:00
24 17   220 Gamer, Sebastian SSV Planeta Radebeul 99 mU18 11   0:27:21 0:06:06
25 18   105 Kuhnert, Klaus TSV Dresden 55 M60 4   0:27:38 0:06:23
26   8 421 H├Ąnsel, Heike VfL Dresden B├╝hlau 63 W50+   2 0:27:44 0:06:29
27   9 370 Baschant, Ulrike Citylauf Verein Dresden 81 W35   1 0:27:45 0:06:30
28 19   3 Kutschka von Rothenfels, Dominic LG Dresden   mU18 12   0:28:13 0:06:58
29   10 383 Wegner-Drichelt, Conni Mei├čen 74 W40   1 0:28:15 0:07:00
30 20   386 Schliwa, Alexander Team Tempus   mU18 13   0:28:47 0:07:32
31   11 209 Moder, Maxie Citylauf-Verein Dresden 81 W35   2 0:28:51 0:07:36
32   12 356 Zange, Andrea Mei├čen 62 W50+   3 0:29:09 0:07:54
33 21   369 Kaubisch, Daniel Hirschfelder L├Ąufer TEA 90 mVS 2   0:29:12 0:07:57
34   13 160 Th├╝mmler, Ronja FPSV 98 wU20   1 0:29:16 0:08:01
35 22   145 K├╝hn, Holger Dresden 54 M60 5   0:29:18 0:08:03
36 23   134 Petra s, Laszlo Dresden Marathon 55 M60 6   0:30:12 0:08:57
37 24   415 Schmidt, Gerd VfL Dresden B├╝hlau 42 M70 1   0:30:22 0:09:07
38 25   40 L├Âwe, Florian Lauftreff OS Weinb├Âhla   mU18 14   0:30:28 0:09:13
39 26   181 Walther, Max SC Riesa 99 mU18 15   0:30:33 0:09:18
40 27   417 Schmidt, Hans-Georg TSV Dresden 38 M75 1   0:30:39 0:09:24
41   14 84 Blaas, Aline SV Chemie N├╝nchritz 97 wU20   2 0:30:41 0:09:26
42   15 175 Preu├čner, Kristina Lauffreunde N├╝nchritz 74 W40   2 0:30:56 0:09:41
43   16 114 Kaiber-Paul, Sabine Dresden 70 W45   6 0:31:02 0:09:47
44 28   7 Liebscher, Rainer Freital 49 M65 1   0:31:04 0:09:49
44 28   399 Grimm, Frank Mei├čen 76 mVS 3   0:31:04 0:09:49
46 30   46 Schubert, Hartmut Dresden 50 M65 2   0:31:06 0:09:51
47   17 211 Rost, Maike SSV Planeta Radebeul 97 wU20   3 0:31:08 0:09:53
48 31   435 Fiedler, Frank Dresden Marathon 53 M60 7   0:31:27 0:10:12
49 32   219 Hemmersbach, Erik SSV Planeta Radebeul   mU18 16   0:31:37 0:10:22
50   18 183 Hofmann, Katrin TSV Dresden 67 W45   7 0:31:46 0:10:31
51 33   410 G├Ârden, Hans-J├╝rgen VfL Dresden B├╝hlau 45 M70 2   0:31:50 0:10:35
52 34   17 List, Hans-Joachim Ruhland 49 M65 3   0:31:55 0:10:40
53   19 174 H├Ąu├čler, Ines Gro├čenhain 68 W45   8 0:31:59 0:10:44
54 35   41 Hussack, Marcel Lauftreff OS Weinb├Âhla 99 mU18 17   0:32:02 0:10:47
55   20 406 Richter, Manuela LG Priestewitz 74 W40   3 0:32:07 0:10:52
56   21 366 Kr├Ąmer, Ann-Kathrin SSV Planeta Radebeul   wU18   1 0:32:16 0:11:01
57   22 397 Berge, Anett Riesa 64 W50+   4 0:32:22 0:11:07
58   23 10 Glasewald, Jenny Volkssport 83 W30   2 0:32:59 0:11:44
59   24 45 Hendricks-Frenkel, Lelia Moritzburg 78 W35   3 0:33:16 0:12:01
60   25 6 Englisch, Sandy Dresden 69 W45   9 0:33:20 0:12:05
61 36   59 Senf, Dietmar Gro├čbothen 51 M65 4   0:33:22 0:12:07
62   26 213 Hendrich, Sophia SSV Planeta Radebeul 99 wU18   2 0:33:26 0:12:11
63   27 212 Heinemann, Wibke SSV Planeta Radebeul 98 wU20   4 0:33:27 0:12:12
64 37   420 Sch├╝tze, Wolfgang Skikub Dresden-Niedersedlitz 42 M70 3   0:33:34 0:12:19
65   28 121 Jakob, Isabel SV Robotron Dresden/Orientierungsl. 99 wU18   3 0:33:35 0:12:20
66 38   408 M├╝ller, Siegfried TV Dresden-Blasewitz 38 M75 2   0:33:44 0:12:29
67   29 108 Bergmann, Janette Team Pinki & Brain 82 W30   3 0:33:48 0:12:33
68 39   430 F├Ârster, Roland K.V. L├Â├čnitz in Radebeul 50 M65 5   0:33:53 0:12:38
69 40   143 Oeser, Konrad Friedewald 48 M65 6   0:33:59 0:12:44
70 41   210 Kockisch, Steffen Oberelbe-Marathon 50 M65 7   0:34:00 0:12:45
71 42   8 Zosel, Armin TSV 1862 Radeburg 34 M80+ 1   0:34:03 0:12:48
72   30 33 Bianchin, Sylvi TSV 92 Freiberg 77 W35   4 0:34:04 0:12:49
73 43   403 Eberhart, Peter Gro├čenhain 61 mVS 4   0:34:09 0:12:54
74   31 207 Hilse, Yvette Peritz 67 W45   10 0:34:12 0:12:57
75 44   361 Lehmkuhle, Hans-J├╝rgen Motor Gro├čenhain 51 M65 8   0:34:17 0:13:02
76 45   112 Wiedrich, Silvio Radebeul 78 mVS 5   0:34:18 0:13:03
77   32 133 Heichen, Simone Dresden 70 W45   11 0:34:42 0:13:27
78   33 61 Wehner, Cornelia Laufszene Sachsen Dresden 70 W45   12 0:34:43 0:13:28
79 46   442 Salem, Mohannad Dresden 84 mVS 6   0:34:58 0:13:43
80   34 21 J├Âhren, Karin Dresden 79 W35   5 0:35:16 0:14:01
81   35 206 Dreiblatt, Rita Citylauf-Verein Dresden 73 W40   4 0:35:21 0:14:06
82 47   391 Oettmeier, Joachim SG Canitz 44 M70 4   0:35:24 0:14:09
83 48   173 Meier, Friedhard Niederau 53 M60 8   0:35:28 0:14:13
84   36 4 Kutschka von Rothenfels, Ines LG Dresden 77 W35   6 0:35:42 0:14:27
85 49   402 Quabs, Frank LSV Dresden 56 M60 9   0:35:43 0:14:28
86   37 180 Lehmann, Anett Dresden 69 W45   13 0:35:48 0:14:33
87 50   48 Hartwig, Wolf-Henning SG Dresdner Bank 43 M70 5   0:36:04 0:14:49
88 51   395 Nestler, Peter Gro├čenhain 49 M65 9   0:36:07 0:14:52
89 52   118 Lell, Marco B├Ąrwalde 73 mVS 7   0:36:14 0:14:59
90   38 396 Feder, Anja VLH 81 W35   7 0:36:32 0:15:17
91 53   431 Stahr, Thomas Niederau 66 mVS 8   0:36:54 0:15:39
92 54   444 Tschiersch, Wolfgang VfL Dresden B├╝hlau 40 M75 3   0:37:02 0:15:47
93   39 54 Th├╝mmler, Katrin GMRV Freiberg 65 W50+   5 0:37:12 0:15:57
94   40 418 Scheicher-Nebe, Katrin Dresden 65 W50+   6 0:37:39 0:16:24
95   41 394 Grimm, Katharina Mei├čen 86 W30   4 0:37:45 0:16:30
96 55   144 Walter, J├Ârg Langebr├╝ck 70 mVS 9   0:38:40 0:17:25
97   42 380 Thieme, Annett Ebersbach 77 W35   8 0:38:48 0:17:33
98 56   411 Heinrich, Dietmar SV Elbland Coswig Mei├čen 47 M65 10   0:38:58 0:17:43
99   43 426 Thiele, Franziska Dresden 81 W35   9 0:39:35 0:18:20
100   44 376 Schwarzer, Manuela Katzengebirgsl├Ąufer 61 W50+   7 0:39:42 0:18:27
101 57   371 Goedderz, Klaus Riesa 56 M60 10   0:40:25 0:19:10
102 58   437 Lindig, Volker Waldlauf Coswig 41 M75 4   0:40:26 0:19:11
103 59   24 Lehmann, Manfred Dresden 38 M75 5   0:41:33 0:20:18
104 60   407 Malsch, Bernhard Mei├čen 37 M75 6   0:49:01 0:27:46
(c) 1990-2012 Blue Wonder Sport Promotion - Andreas Burow - Zeitnahme & Auswertung - www.Triathlon-Service.de